Time;durP1;ratioP1;P1;durP2;ratioP2;P2;SDS_P1;SDS_P2;PMS_P1;PMS_P2;Temp;Humidity;BMP_temperature;BMP_pressure;BME280_temperature;BME280_humidity;BME280_pressure;Samples;Min_cycle;Max_cycle;Signal;HPM_P1;HPM_P2
2021/04/23 00:00:17;;;;;;;20.52;7.75;;;;;;;4.86;60.84;96680.44;1041395;28;20079;-51
2021/04/23 00:00:56;;;;;;;16.70;7.72;;;;;;;4.73;61.22;96674.75;1041448;28;20532;-51
2021/04/23 00:01:26;;;;;;;21.05;7.47;;;;;;;4.74;61.74;96681.63;1041253;28;20017;-50
2021/04/23 00:01:57;;;;;;;14.47;7.93;;;;;;;4.74;61.78;96677.22;1041171;28;20109;-49
2021/04/23 00:02:27;;;;;;;14.77;6.90;;;;;;;4.72;61.75;96678.31;1041495;28;20143;-48
2021/04/23 00:02:59;;;;;;;13.63;6.97;;;;;;;4.62;61.19;96680.97;1041397;28;20017;-48
2021/04/23 00:03:38;;;;;;;15.13;7.30;;;;;;;4.62;60.23;96683.59;1041241;28;20025;-48
2021/04/23 00:04:09;;;;;;;16.50;6.68;;;;;;;4.59;59.25;96678.66;1041363;28;20033;-48
2021/04/23 00:04:39;;;;;;;16.50;6.63;;;;;;;4.60;59.05;96677.66;1041462;28;20048;-52
2021/04/23 00:05:10;;;;;;;14.37;7.00;;;;;;;4.50;59.89;96675.09;1041307;28;20013;-50
2021/04/23 00:05:41;;;;;;;21.37;7.00;;;;;;;4.48;59.83;96676.22;1041400;28;20155;-49
2021/04/23 00:06:38;;;;;;;18.13;6.80;;;;;;;4.35;61.32;96679.16;1041119;28;20449;-50
2021/04/23 00:07:09;;;;;;;16.90;6.40;;;;;;;4.22;62.47;96682.06;1039534;28;20037;-50
2021/04/23 00:07:39;;;;;;;12.13;6.40;;;;;;;4.19;62.40;96674.50;1041364;28;20383;-50
2021/04/23 00:08:11;;;;;;;15.47;6.87;;;;;;;4.15;61.87;96681.81;1041335;28;20468;-49
2021/04/23 00:08:45;;;;;;;14.85;7.53;;;;;;;4.06;62.75;96673.03;1041186;28;20033;-52
2021/04/23 00:09:18;;;;;;;15.32;7.60;;;;;;;4.08;62.05;96675.50;1036902;28;20028;-48
2021/04/23 00:09:48;;;;;;;19.08;7.03;;;;;;;4.05;62.55;96678.41;1036748;28;20057;-49
2021/04/23 00:10:21;;;;;;;17.13;7.83;;;;;;;4.08;62.86;96673.75;1036850;28;20463;-50
2021/04/23 00:10:51;;;;;;;16.33;6.65;;;;;;;4.12;63.13;96678.66;1037483;28;20486;-48
2021/04/23 00:11:39;;;;;;;15.87;7.00;;;;;;;4.18;63.14;96673.72;1041351;28;20135;-50
2021/04/23 00:12:12;;;;;;;13.30;6.80;;;;;;;4.07;62.74;96668.69;1041362;28;20060;-49
2021/04/23 00:12:42;;;;;;;15.38;6.80;;;;;;;4.15;63.85;96674.00;1041361;28;20048;-51
2021/04/23 00:13:13;;;;;;;14.23;6.70;;;;;;;4.18;63.53;96676.31;1041118;28;20013;-48
2021/04/23 00:13:43;;;;;;;14.83;6.40;;;;;;;4.17;63.74;96671.25;1041463;28;20036;-50
2021/04/23 00:14:15;;;;;;;18.10;7.10;;;;;;;4.29;63.32;96669.28;1041317;28;20033;-50
2021/04/23 00:14:49;;;;;;;13.63;7.07;;;;;;;4.49;63.77;96668.25;1041158;28;20036;-47
2021/04/23 00:15:20;;;;;;;13.05;6.40;;;;;;;4.68;63.15;96663.94;1041241;28;20021;-51
2021/04/23 00:15:51;;;;;;;16.42;6.13;;;;;;;4.69;62.53;96673.38;1041229;28;20032;-51
2021/04/23 00:16:21;;;;;;;16.60;6.47;;;;;;;4.62;61.13;96665.31;1041532;28;20075;-47
2021/04/23 00:16:52;;;;;;;14.10;6.30;;;;;;;4.50;60.95;96666.47;1036941;28;20037;-51
2021/04/23 00:17:22;;;;;;;14.70;6.07;;;;;;;4.47;60.90;96662.38;1037060;28;20022;-51
2021/04/23 00:17:53;;;;;;;14.17;6.23;;;;;;;4.36;61.01;96665.97;1036929;28;20022;-49
2021/04/23 00:18:23;;;;;;;18.50;6.30;;;;;;;4.31;61.63;96669.97;1037186;28;20401;-48
2021/04/23 00:18:54;;;;;;;15.53;6.50;;;;;;;4.33;62.47;96674.06;1041482;28;20394;-48
2021/04/23 00:19:25;;;;;;;15.67;7.07;;;;;;;4.43;62.90;96668.81;1041431;28;20021;-50
2021/04/23 00:19:55;;;;;;;17.52;6.75;;;;;;;4.53;63.95;96668.78;1040923;28;20446;-49
2021/04/23 00:20:27;;;;;;;14.83;6.37;;;;;;;4.54;62.71;96668.66;1041060;28;20030;-49
2021/04/23 00:20:58;;;;;;;16.98;6.55;;;;;;;4.52;62.09;96661.94;1041043;28;20092;-48
2021/04/23 00:21:28;;;;;;;10.80;6.30;;;;;;;4.52;62.56;96667.94;1041170;28;20112;-49
2021/04/23 00:21:58;;;;;;;19.60;6.67;;;;;;;4.54;63.54;96660.81;1041636;28;20033;-48
2021/04/23 00:22:29;;;;;;;16.57;6.17;;;;;;;4.48;62.82;96663.16;1041082;28;20044;-47
2021/04/23 00:23:02;;;;;;;14.50;6.60;;;;;;;4.67;63.11;96663.09;1040964;28;20026;-48
2021/04/23 00:23:33;;;;;;;15.32;6.53;;;;;;;4.54;61.63;96668.66;1041078;28;20051;-48
2021/04/23 00:24:03;;;;;;;13.55;6.25;;;;;;;4.47;61.57;96664.16;1041008;28;20028;-48
2021/04/23 00:24:34;;;;;;;15.17;6.30;;;;;;;4.33;61.65;96663.66;1040845;28;20056;-47
2021/04/23 00:25:05;;;;;;;13.40;5.97;;;;;;;4.28;62.47;96668.44;1041031;28;20130;-47
2021/04/23 00:25:37;;;;;;;13.63;6.60;;;;;;;4.24;62.80;96665.31;1036988;28;20101;-49
2021/04/23 00:26:07;;;;;;;13.38;6.00;;;;;;;4.24;63.20;96665.31;1032904;28;20084;-48
2021/04/23 00:26:39;;;;;;;15.43;7.00;;;;;;;4.38;63.70;96664.03;1037179;28;20076;-48
2021/04/23 00:27:09;;;;;;;15.95;6.43;;;;;;;4.37;63.83;96665.03;1033111;28;20026;-51
2021/04/23 00:27:41;;;;;;;15.63;6.87;;;;;;;4.27;63.08;96666.81;1037220;28;20112;-49
2021/04/23 00:28:13;;;;;;;15.30;6.78;;;;;;;4.26;64.78;96668.59;1041175;28;20029;-49
2021/04/23 00:28:43;;;;;;;13.77;6.72;;;;;;;4.31;63.70;96677.78;1041059;28;20585;-51
2021/04/23 00:29:14;;;;;;;13.50;6.40;;;;;;;4.24;64.38;96669.72;1041441;28;20131;-47
2021/04/23 00:29:44;;;;;;;17.23;6.63;;;;;;;4.36;64.50;96667.78;1041497;28;20101;-49
2021/04/23 00:30:15;;;;;;;16.53;6.90;;;;;;;4.43;64.09;96674.03;1041199;28;20064;-51
2021/04/23 00:30:49;;;;;;;16.80;6.60;;;;;;;4.38;63.54;96666.63;1041282;28;20071;-50
2021/04/23 00:31:19;;;;;;;17.27;6.80;;;;;;;4.38;62.84;96671.84;1041211;28;20059;-50
2021/04/23 00:31:51;;;;;;;11.47;6.53;;;;;;;4.32;63.26;96671.63;1041261;28;20030;-49
2021/04/23 00:32:21;;;;;;;13.82;6.70;;;;;;;4.22;63.18;96671.63;1041381;28;20025;-49
2021/04/23 00:32:54;;;;;;;15.70;6.20;;;;;;;4.30;64.35;96679.56;1041254;28;20026;-48
2021/04/23 00:33:25;;;;;;;14.27;6.90;;;;;;;4.38;65.67;96673.66;1041249;28;20096;-48
2021/04/23 00:33:55;;;;;;;14.30;6.33;;;;;;;4.49;64.86;96673.47;1041459;28;20049;-49
2021/04/23 00:34:26;;;;;;;12.97;6.13;;;;;;;4.56;63.96;96674.53;1041064;28;20017;-48
2021/04/23 00:34:56;;;;;;;15.03;6.50;;;;;;;4.44;62.83;96673.06;1041396;28;20032;-51
2021/04/23 00:35:30;;;;;;;14.67;6.73;;;;;;;4.49;63.23;96670.03;1041233;28;20175;-52
2021/04/23 00:36:00;;;;;;;15.68;6.40;;;;;;;4.40;62.23;96674.31;1040958;28;20057;-50
2021/04/23 00:36:31;;;;;;;12.13;6.13;;;;;;;4.29;62.89;96677.94;1040911;28;20068;-51
2021/04/23 00:37:01;;;;;;;13.70;6.20;;;;;;;4.20;63.75;96674.38;1041031;28;20562;-52
2021/04/23 00:37:32;;;;;;;14.80;6.10;;;;;;;4.37;64.12;96678.06;1041148;28;20094;-51
2021/04/23 00:38:03;;;;;;;16.67;6.97;;;;;;;4.45;63.74;96667.72;1041190;28;20428;-47
2021/04/23 00:38:34;;;;;;;12.07;6.20;;;;;;;4.45;62.12;96670.31;1041245;28;20025;-48
2021/04/23 00:39:05;;;;;;;17.00;6.63;;;;;;;4.37;62.05;96666.78;1041043;28;20181;-48
2021/04/23 00:39:36;;;;;;;13.53;6.27;;;;;;;4.27;62.90;96670.25;1040923;28;20021;-51
2021/04/23 00:40:07;;;;;;;14.80;6.47;;;;;;;4.31;62.64;96675.19;1041131;28;20021;-49
2021/04/23 00:40:41;;;;;;;18.80;6.82;;;;;;;4.30;62.74;96673.53;1040983;28;20029;-52
2021/04/23 00:41:13;;;;;;;11.77;6.38;;;;;;;4.22;61.65;96671.63;1040902;28;20033;-48
2021/04/23 00:41:44;;;;;;;19.08;6.63;;;;;;;4.14;61.71;96674.94;1040771;28;20139;-49
2021/04/23 00:42:14;;;;;;;15.33;6.77;;;;;;;4.08;61.45;96675.50;1036769;28;20034;-48
2021/04/23 00:42:45;;;;;;;15.90;6.50;;;;;;;4.07;61.53;96679.09;1036967;28;20076;-49
2021/04/23 00:43:17;;;;;;;12.20;5.80;;;;;;;4.09;62.91;96671.94;1041042;28;20559;-48
2021/04/23 00:43:58;;;;;;;15.32;6.53;;;;;;;4.03;62.62;96673.31;1041007;28;20375;-47
2021/04/23 00:44:28;;;;;;;;;;;;;;;4.22;62.93;96682.06;1041515;28;20029;-50
2021/04/23 00:44:58;;;;;;;12.83;5.70;;;;;;;4.07;62.86;96672.09;1041163;28;20003;-48
2021/04/23 00:45:29;;;;;;;15.10;6.30;;;;;;;4.11;63.61;96680.44;1041250;28;20018;-48
2021/04/23 00:45:59;;;;;;;16.30;5.77;;;;;;;4.06;62.95;96675.66;1041063;28;20383;-49
2021/04/23 00:46:31;;;;;;;13.03;5.80;;;;;;;4.08;63.28;96676.34;1041158;28;20014;-48
2021/04/23 00:47:02;;;;;;;19.23;6.10;;;;;;;4.15;63.61;96673.19;1041158;28;20029;-48
2021/04/23 00:47:32;;;;;;;16.00;6.27;;;;;;;4.06;62.77;96682.66;1041182;28;20037;-48
2021/04/23 00:48:05;;;;;;;12.13;5.97;;;;;;;3.90;62.65;96673.63;1041341;28;20056;-50
2021/04/23 00:48:39;;;;;;;14.23;5.80;;;;;;;3.98;63.72;96675.53;1041280;28;20021;-52
2021/04/23 00:49:11;;;;;;;12.25;5.88;;;;;;;4.27;64.22;96679.88;1040716;28;20034;-52
2021/04/23 00:49:42;;;;;;;12.00;5.70;;;;;;;4.55;62.88;96672.06;1036200;28;20537;-51
2021/04/23 00:50:14;;;;;;;14.27;5.77;;;;;;;4.51;62.16;96673.31;1036957;28;20030;-50
2021/04/23 00:50:55;;;;;;;11.95;5.65;;;;;;;4.48;62.80;96673.59;1037475;28;20081;-49
2021/04/23 00:51:28;;;;;;;13.43;5.68;;;;;;;4.49;61.93;96672.66;1038553;28;20033;-50
2021/04/23 00:52:00;;;;;;;10.75;5.60;;;;;;;4.38;61.27;96676.25;1040965;28;20052;-51
2021/04/23 00:52:30;;;;;;;13.15;5.78;;;;;;;4.31;61.85;96677.78;1041010;28;20030;-51
2021/04/23 00:53:01;;;;;;;13.10;6.07;;;;;;;4.29;62.46;96682.31;1040900;28;20030;-48
2021/04/23 00:53:32;;;;;;;15.97;5.77;;;;;;;4.15;62.29;96678.38;1041238;28;20104;-50
2021/04/23 00:54:04;;;;;;;15.52;6.35;;;;;;;4.06;62.64;96675.66;1041445;28;20026;-48
2021/04/23 00:54:34;;;;;;;14.30;6.38;;;;;;;3.92;62.90;96674.31;1041085;28;20048;-52
2021/04/23 00:55:06;;;;;;;12.80;5.60;;;;;;;3.83;63.65;96675.16;1040800;28;20466;-51
2021/04/23 00:55:36;;;;;;;14.25;6.10;;;;;;;3.90;64.54;96676.25;1040180;28;20045;-50
2021/04/23 00:56:09;;;;;;;13.13;6.40;;;;;;;3.89;64.56;96677.19;1036620;28;20510;-52
2021/04/23 00:56:40;;;;;;;13.85;6.22;;;;;;;4.12;65.96;96682.09;1037019;28;20499;-52
2021/04/23 00:57:10;;;;;;;16.60;6.30;;;;;;;4.25;65.36;96686.97;1040883;28;20022;-49
2021/04/23 00:57:40;;;;;;;16.27;6.70;;;;;;;4.54;64.03;96681.69;1041014;28;20514;-49
2021/04/23 00:58:12;;;;;;;15.20;6.30;;;;;;;4.45;62.64;96677.34;1040979;28;20020;-52
2021/04/23 00:58:43;;;;;;;12.63;6.45;;;;;;;4.50;62.68;96679.50;1040959;28;20040;-52
2021/04/23 00:59:14;;;;;;;14.47;6.33;;;;;;;4.55;62.82;96679.91;1032618;28;20033;-52
2021/04/23 00:59:44;;;;;;;11.40;5.83;;;;;;;4.55;62.95;96683.31;1033052;28;20272;-52
2021/04/23 01:00:16;;;;;;;13.30;6.33;;;;;;;4.54;63.75;96680.84;1036796;28;20068;-51
2021/04/23 01:00:50;;;;;;;16.42;6.28;;;;;;;4.50;63.55;96680.31;1036939;28;20065;-49
2021/04/23 01:01:46;;;;;;;12.57;5.90;;;;;;;4.37;62.11;96685.88;1040667;28;20476;-50
2021/04/23 01:02:17;;;;;;;11.02;5.32;;;;;;;4.23;62.96;96679.31;1032076;28;20035;-50
2021/04/23 01:02:47;;;;;;;14.47;6.30;;;;;;;4.19;63.18;96682.34;1036716;28;20116;-49
2021/04/23 01:03:19;;;;;;;17.47;5.93;;;;;;;4.05;63.00;96681.84;1040319;28;20025;-52
2021/04/23 01:03:51;;;;;;;14.02;5.97;;;;;;;4.10;63.34;96684.03;1036884;28;20026;-50
2021/04/23 01:04:21;;;;;;;13.93;6.60;;;;;;;4.11;64.07;96674.41;1040718;28;20079;-47
2021/04/23 01:04:52;;;;;;;14.60;6.10;;;;;;;4.20;64.10;96686.59;1036780;28;20473;-48
2021/04/23 01:05:27;;;;;;;14.03;6.17;;;;;;;4.43;64.96;96687.06;1037019;28;20021;-47
2021/04/23 01:05:58;;;;;;;14.15;5.85;;;;;;;4.47;64.12;96682.41;1036789;28;20022;-47
2021/04/23 01:06:30;;;;;;;22.90;6.43;;;;;;;4.49;64.21;96683.06;1037597;28;20029;-47
2021/04/23 01:07:00;;;;;;;13.20;6.10;;;;;;;4.67;64.64;96680.53;1041391;28;20013;-49
2021/04/23 01:07:31;;;;;;;12.83;5.70;;;;;;;4.51;62.26;96681.97;1041440;28;20422;-48
2021/04/23 01:08:01;;;;;;;11.53;5.73;;;;;;;4.46;63.80;96684.19;1041059;28;20128;-49
2021/04/23 01:08:32;;;;;;;17.33;6.13;;;;;;;4.48;63.29;96682.25;1041193;28;20483;-48
2021/04/23 01:09:14;;;;;;;14.13;6.20;;;;;;;4.52;65.68;96683.59;1041093;28;20009;-47
2021/04/23 01:09:44;;;;;;;12.45;6.07;;;;;;;4.47;64.98;96679.81;1041102;28;20024;-48
2021/04/23 01:10:16;;;;;;;14.57;6.50;;;;;;;4.70;64.30;96680.25;1041111;28;20371;-48
2021/04/23 01:10:46;;;;;;;12.13;5.90;;;;;;;4.63;63.76;96686.03;1040826;28;20020;-48
2021/04/23 01:11:18;;;;;;;14.37;6.40;;;;;;;4.66;63.44;96689.31;1040687;28;20029;-48
2021/04/23 01:11:48;;;;;;;11.93;6.25;;;;;;;4.76;63.21;96682.28;1036852;28;20010;-49
2021/04/23 01:12:19;;;;;;;12.67;5.80;;;;;;;4.81;63.59;96685.25;1036965;28;20041;-49
2021/04/23 01:12:49;;;;;;;18.93;6.33;;;;;;;4.80;62.78;96675.81;1040919;28;20039;-49
2021/04/23 01:13:20;;;;;;;15.17;6.57;;;;;;;4.77;63.11;96681.31;1037060;28;20009;-47
2021/04/23 01:13:50;;;;;;;10.80;5.67;;;;;;;4.78;63.82;96682.94;1036613;28;20352;-50
2021/04/23 01:14:21;;;;;;;15.33;6.33;;;;;;;4.78;62.50;96682.94;1036695;28;20010;-48
2021/04/23 01:14:51;;;;;;;13.43;5.97;;;;;;;4.71;63.02;96687.13;1032948;28;20076;-50
2021/04/23 01:15:22;;;;;;;12.37;6.27;;;;;;;4.81;63.46;96682.66;1036736;28;20419;-50
2021/04/23 01:15:52;;;;;;;14.37;6.53;;;;;;;4.65;62.22;96682.44;1036544;28;20029;-48
2021/04/23 01:16:24;;;;;;;12.50;5.50;;;;;;;4.69;62.86;96689.88;1032566;28;20026;-48
2021/04/23 01:16:54;;;;;;;13.20;6.32;;;;;;;4.54;63.05;96683.47;1036961;28;20167;-47
2021/04/23 01:17:25;;;;;;;14.90;6.17;;;;;;;4.43;63.64;96687.06;1040844;28;20032;-48
2021/04/23 01:17:55;;;;;;;18.17;6.07;;;;;;;4.37;64.10;96680.66;1040853;28;20018;-48
2021/04/23 01:18:26;;;;;;;12.17;6.27;;;;;;;4.38;64.59;96687.50;1041025;28;20017;-49
2021/04/23 01:18:57;;;;;;;12.95;6.18;;;;;;;4.46;65.18;96681.56;1040839;28;20024;-49
2021/04/23 01:19:27;;;;;;;17.47;6.60;;;;;;;4.46;63.22;96684.19;1040930;28;20419;-47
2021/04/23 01:19:58;;;;;;;15.17;6.60;;;;;;;4.51;63.73;96686.34;1036634;28;20035;-48
2021/04/23 01:20:28;;;;;;;18.70;7.00;;;;;;;4.47;62.61;96685.81;1032716;28;20096;-49
2021/04/23 01:21:06;;;;;;;17.13;6.80;;;;;;;4.52;63.62;96688.00;1036649;28;20443;-50
2021/04/23 01:21:36;;;;;;;13.88;6.43;;;;;;;4.47;63.58;96680.63;1037727;28;20021;-51
2021/04/23 01:22:07;;;;;;;13.77;6.17;;;;;;;4.39;62.92;96690.94;1040866;28;20100;-50
2021/04/23 01:22:37;;;;;;;12.77;6.30;;;;;;;4.55;63.78;96685.91;1041131;28;20108;-49
2021/04/23 01:23:08;;;;;;;10.97;6.00;;;;;;;4.66;64.45;96689.31;1041134;28;20373;-49
2021/04/23 01:23:39;;;;;;;17.73;6.87;;;;;;;4.62;64.42;96686.19;1040870;28;20026;-48
2021/04/23 01:24:10;;;;;;;13.65;6.20;;;;;;;4.55;63.82;96688.53;1041011;28;20156;-49
2021/04/23 01:24:41;;;;;;;15.68;6.75;;;;;;;4.60;64.87;96688.09;1041087;28;20025;-50
2021/04/23 01:25:12;;;;;;;12.50;6.20;;;;;;;4.63;65.11;96683.44;1040967;28;20048;-48
2021/04/23 01:25:42;;;;;;;13.40;6.57;;;;;;;4.59;63.93;96684.69;1041128;28;20048;-49
2021/04/23 01:26:14;;;;;;;15.90;6.20;;;;;;;4.48;63.29;96684.88;1040956;28;20106;-49
2021/04/23 01:26:46;;;;;;;12.65;6.57;;;;;;;4.44;63.52;96689.53;1040583;28;20068;-49
2021/04/23 01:27:16;;;;;;;15.65;7.03;;;;;;;4.37;63.71;96682.44;1040591;28;20025;-48
2021/04/23 01:27:47;;;;;;;14.43;6.83;;;;;;;4.41;63.75;96686.41;1040766;28;20087;-49
2021/04/23 01:28:17;;;;;;;17.57;6.63;;;;;;;4.45;63.54;96679.94;1040814;28;20045;-51
2021/04/23 01:28:49;;;;;;;14.53;6.43;;;;;;;4.43;64.59;96680.09;1040802;28;20014;-49
2021/04/23 01:29:20;;;;;;;12.77;6.00;;;;;;;4.38;64.15;96684.09;1040944;28;20017;-49
2021/04/23 01:29:51;;;;;;;13.27;6.50;;;;;;;4.38;64.04;96684.88;1041098;28;20025;-48
2021/04/23 01:30:21;;;;;;;14.47;6.70;;;;;;;4.27;63.80;96680.66;1040993;28;20025;-48
2021/04/23 01:30:52;;;;;;;11.30;6.30;;;;;;;4.32;64.67;96682.03;1040761;28;20029;-48
2021/04/23 01:31:25;;;;;;;14.80;6.53;;;;;;;4.33;65.41;96684.50;1040823;28;20025;-49
2021/04/23 01:31:56;;;;;;;12.75;6.20;;;;;;;4.24;65.54;96688.78;1041039;28;20045;-48
2021/04/23 01:32:27;;;;;;;17.10;6.80;;;;;;;4.18;64.91;96691.94;1040897;28;20039;-48
2021/04/23 01:32:57;;;;;;;13.43;6.40;;;;;;;4.30;65.93;96684.78;1040705;28;20467;-49
2021/04/23 01:33:28;;;;;;;17.87;6.50;;;;;;;4.37;65.47;96685.03;1041044;28;20017;-49
2021/04/23 01:34:08;;;;;;;14.87;6.03;;;;;;;4.36;64.79;96680.81;1040972;28;20033;-48
2021/04/23 01:34:39;;;;;;;14.57;6.72;;;;;;;4.38;64.34;96687.50;1040588;28;20025;-48
2021/04/23 01:35:12;;;;;;;14.43;5.90;;;;;;;4.30;64.74;96686.56;1040534;28;20111;-48
2021/04/23 01:35:43;;;;;;;14.48;6.18;;;;;;;4.36;65.46;96692.03;1036572;28;20029;-49
2021/04/23 01:36:13;;;;;;;14.40;6.73;;;;;;;4.32;65.07;96689.88;1036830;28;20156;-49
2021/04/23 01:36:44;;;;;;;16.03;6.40;;;;;;;4.33;65.89;96689.72;1040695;28;20353;-49
2021/04/23 01:37:15;;;;;;;13.02;6.47;;;;;;;4.22;66.09;96693.31;1040473;28;20448;-48
2021/04/23 01:37:46;;;;;;;15.30;6.90;;;;;;;4.34;66.22;96691.38;1040932;28;20033;-49
2021/04/23 01:38:16;;;;;;;17.30;6.40;;;;;;;4.33;66.13;96688.88;1040986;28;20026;-48
2021/04/23 01:38:47;;;;;;;13.93;6.73;;;;;;;4.37;66.18;96700.69;1040848;28;20131;-49
2021/04/23 01:39:21;;;;;;;13.15;5.95;;;;;;;4.36;65.41;96693.84;1040331;28;20488;-48
2021/04/23 01:39:51;;;;;;;13.90;6.80;;;;;;;4.36;66.59;96697.25;1040720;28;20032;-50
2021/04/23 01:40:22;;;;;;;14.27;6.50;;;;;;;4.24;66.59;96696.59;1040703;28;20108;-48
2021/04/23 01:40:52;;;;;;;14.67;6.47;;;;;;;4.29;66.55;96695.34;1040725;28;20143;-48
2021/04/23 01:41:23;;;;;;;15.40;6.40;;;;;;;4.24;66.86;96696.59;1040486;28;20430;-48
2021/04/23 01:41:54;;;;;;;12.20;6.60;;;;;;;4.22;67.33;96693.31;1040711;28;20029;-48
2021/04/23 01:42:24;;;;;;;14.13;6.53;;;;;;;4.21;66.75;96701.28;1040737;28;20053;-50
2021/04/23 01:42:55;;;;;;;14.43;7.40;;;;;;;4.19;67.06;96693.59;1040726;28;20040;-48
2021/04/23 01:43:25;;;;;;;12.90;6.33;;;;;;;4.25;67.18;96692.19;1040989;28;20017;-49
2021/04/23 01:43:56;;;;;;;14.33;6.70;;;;;;;4.27;65.95;96698.91;1041032;28;20105;-49
2021/04/23 01:44:27;;;;;;;16.43;6.87;;;;;;;4.21;66.73;96696.88;1040901;28;20036;-48
2021/04/23 01:44:58;;;;;;;14.13;6.50;;;;;;;4.38;66.59;96692.72;1041090;28;20096;-48
2021/04/23 01:45:28;;;;;;;15.52;6.25;;;;;;;4.36;65.91;96692.03;1040959;28;20025;-49
2021/04/23 01:45:59;;;;;;;15.30;6.30;;;;;;;4.29;65.39;96696.16;1040572;28;20057;-49
2021/04/23 01:46:33;;;;;;;11.97;6.47;;;;;;;4.20;65.77;96689.19;1040954;28;20112;-54
2021/04/23 01:47:03;;;;;;;17.42;6.35;;;;;;;4.11;65.95;96695.25;1040725;28;20117;-49
2021/04/23 01:47:34;;;;;;;14.87;6.40;;;;;;;4.04;66.54;96689.81;1040497;28;20436;-48
2021/04/23 01:48:05;;;;;;;12.63;6.37;;;;;;;4.09;66.77;96691.00;1040801;28;20025;-50
2021/04/23 01:48:35;;;;;;;14.40;6.37;;;;;;;3.98;66.65;96695.53;1040852;28;20091;-49
2021/04/23 01:49:10;;;;;;;9.97;6.00;;;;;;;3.94;67.52;96694.19;1040781;28;20036;-49
2021/04/23 01:49:41;;;;;;;14.18;6.70;;;;;;;3.87;68.04;96692.16;1040778;28;20060;-47
2021/04/23 01:50:14;;;;;;;14.13;6.33;;;;;;;3.82;67.48;96696.94;1041137;28;20071;-49
2021/04/23 01:50:45;;;;;;;13.95;6.40;;;;;;;3.81;67.70;96699.69;1040676;28;20032;-48
2021/04/23 01:51:16;;;;;;;16.13;7.00;;;;;;;3.77;68.56;96693.13;1040842;28;20431;-48
2021/04/23 01:51:54;;;;;;;13.97;7.10;;;;;;;3.71;68.91;96684.88;1040968;28;20056;-47
2021/04/23 01:52:25;;;;;;;15.88;6.13;;;;;;;3.69;69.09;96691.19;1041078;28;20324;-48
2021/04/23 01:52:55;;;;;;;13.07;6.70;;;;;;;3.65;69.22;96690.66;1040820;28;20021;-47
2021/04/23 01:53:26;;;;;;;13.03;6.60;;;;;;;3.58;69.85;96694.75;1040925;28;20024;-47
2021/04/23 01:53:56;;;;;;;12.30;5.97;;;;;;;3.62;70.82;96692.72;1040749;28;20444;-49
2021/04/23 01:54:27;;;;;;;16.87;6.37;;;;;;;3.67;71.37;96695.72;1040496;28;20051;-47
2021/04/23 01:54:58;;;;;;;12.98;6.25;;;;;;;3.65;70.50;96692.44;1040893;28;20025;-46
2021/04/23 01:55:28;;;;;;;17.10;6.50;;;;;;;3.64;70.76;96696.81;1041195;28;20074;-47
2021/04/23 01:55:59;;;;;;;12.97;6.80;;;;;;;3.54;71.16;96698.63;1040855;28;20056;-49
2021/04/23 01:56:29;;;;;;;13.33;6.67;;;;;;;3.60;72.01;96692.00;1041071;28;20028;-48
2021/04/23 01:57:00;;;;;;;12.13;6.37;;;;;;;3.67;71.47;96693.13;1041069;28;20462;-50
2021/04/23 01:57:30;;;;;;;14.63;6.50;;;;;;;3.74;71.51;96686.41;1041091;28;20067;-47
2021/04/23 01:58:01;;;;;;;13.77;6.40;;;;;;;3.82;70.27;96696.13;1041148;28;20032;-48
2021/04/23 01:58:31;;;;;;;11.80;6.23;;;;;;;3.79;70.82;96696.41;1041089;28;20052;-48
2021/04/23 01:59:04;;;;;;;14.93;6.23;;;;;;;3.89;72.48;96697.22;1041015;28;20052;-47
2021/04/23 01:59:35;;;;;;;19.23;6.47;;;;;;;3.80;69.97;96696.28;1041219;28;20025;-51
2021/04/23 02:00:11;;;;;;;13.95;6.90;;;;;;;3.63;69.89;96697.78;1040984;28;20432;-48
2021/04/23 02:00:47;;;;;;;13.75;6.18;;;;;;;3.52;70.63;96690.94;1040600;28;20040;-48
2021/04/23 02:01:17;;;;;;;12.88;6.82;;;;;;;3.51;71.09;96689.28;1040866;28;20021;-50
2021/04/23 02:01:48;;;;;;;16.90;6.50;;;;;;;3.63;71.31;96694.34;1040662;28;20444;-49
2021/04/23 02:02:18;;;;;;;14.87;6.47;;;;;;;3.58;71.01;96689.53;1040521;28;20022;-52
2021/04/23 02:02:52;;;;;;;13.13;6.37;;;;;;;3.55;70.97;96687.22;1041068;28;20021;-49
2021/04/23 02:03:23;;;;;;;14.63;6.63;;;;;;;3.76;71.13;96694.88;1041102;28;20017;-50
2021/04/23 02:03:55;;;;;;;12.27;6.10;;;;;;;3.75;70.18;96690.66;1041087;28;20036;-51
2021/04/23 02:04:26;;;;;;;16.38;6.32;;;;;;;3.76;70.47;96697.50;1040685;28;20032;-50
2021/04/23 02:04:56;;;;;;;13.20;6.63;;;;;;;3.82;70.45;96694.34;1040923;28;20028;-49
2021/04/23 02:05:28;;;;;;;9.80;5.63;;;;;;;3.94;70.56;96689.81;1040857;28;20017;-48
2021/04/23 02:05:58;;;;;;;15.40;6.63;;;;;;;3.83;68.94;96688.16;1040927;28;20018;-50
2021/04/23 02:06:29;;;;;;;9.87;5.80;;;;;;;3.82;69.46;96690.91;1040872;28;20048;-46
2021/04/23 02:06:59;;;;;;;11.90;6.33;;;;;;;3.73;69.04;96690.81;1040782;28;20013;-48
2021/04/23 02:07:31;;;;;;;14.00;6.87;;;;;;;3.71;69.92;96689.28;1040408;28;20436;-49
2021/04/23 02:08:01;;;;;;;13.85;6.75;;;;;;;3.70;70.88;96691.03;1040420;28;20144;-51
2021/04/23 02:08:32;;;;;;;14.53;6.57;;;;;;;3.73;70.67;96687.34;1040774;28;20029;-48
2021/04/23 02:09:04;;;;;;;16.33;6.80;;;;;;;3.86;70.08;96682.69;1040498;28;20017;-48
2021/04/23 02:09:34;;;;;;;15.48;6.68;;;;;;;3.68;70.60;96684.34;1040884;28;20021;-47
2021/04/23 02:10:08;;;;;;;16.70;7.30;;;;;;;3.53;70.83;96678.72;1040810;28;20024;-48
2021/04/23 02:10:48;;;;;;;15.32;6.63;;;;;;;3.59;71.86;96685.19;1040965;28;20032;-48
2021/04/23 02:11:19;;;;;;;;;;;;;;;3.73;72.58;96683.00;1041575;28;20097;-48
2021/04/23 02:11:51;;;;;;;14.80;6.80;;;;;;;3.65;71.16;96682.03;1040857;28;20367;-48
2021/04/23 02:12:21;;;;;;;14.10;6.70;;;;;;;3.66;71.27;96686.25;1040775;28;20009;-47
2021/04/23 02:12:52;;;;;;;12.57;7.00;;;;;;;3.68;72.14;96684.34;1040316;28;20037;-48
2021/04/23 02:13:23;;;;;;;10.67;5.90;;;;;;;3.81;71.87;96684.06;1036878;28;20017;-48
2021/04/23 02:13:56;;;;;;;12.23;6.03;;;;;;;3.83;70.88;96675.16;1036481;28;20009;-48
2021/04/23 02:14:27;;;;;;;15.70;6.78;;;;;;;3.73;70.29;96692.56;1037063;28;20050;-49
2021/04/23 02:14:58;;;;;;;14.37;7.30;;;;;;;3.59;70.21;96687.78;1040717;28;20399;-48
2021/04/23 02:15:28;;;;;;;15.47;6.87;;;;;;;3.52;71.04;96685.72;1040610;28;20084;-52
2021/04/23 02:15:59;;;;;;;11.00;6.70;;;;;;;3.45;70.46;96687.22;1040704;28;20032;-49
2021/04/23 02:16:29;;;;;;;14.90;6.93;;;;;;;3.47;69.90;96685.31;1040567;28;20021;-49
2021/04/23 02:17:00;;;;;;;11.43;6.40;;;;;;;3.46;69.32;96685.44;1040722;28;20022;-49
2021/04/23 02:17:30;;;;;;;16.00;7.33;;;;;;;3.42;69.36;96684.09;1040682;28;20044;-49
2021/04/23 02:18:01;;;;;;;14.53;6.20;;;;;;;3.31;71.32;96685.00;1040885;28;20028;-49
2021/04/23 02:18:31;;;;;;;14.77;6.77;;;;;;;3.22;71.36;96688.44;1040851;28;20029;-49
2021/04/23 02:19:04;;;;;;;16.73;6.60;;;;;;;3.14;72.54;96684.75;1040824;28;20017;-48
2021/04/23 02:19:35;;;;;;;13.82;7.15;;;;;;;3.13;71.73;96683.09;1040760;28;20013;-46
2021/04/23 02:20:07;;;;;;;11.87;6.90;;;;;;;3.07;71.30;96686.22;1040747;28;20022;-48
2021/04/23 02:20:37;;;;;;;13.40;6.70;;;;;;;3.06;71.21;96689.78;1040429;28;20024;-48
2021/04/23 02:21:08;;;;;;;13.10;6.73;;;;;;;2.96;71.69;96687.16;1036364;28;20029;-48
2021/04/23 02:21:39;;;;;;;12.40;6.20;;;;;;;2.90;72.79;96692.06;1032466;28;20083;-48
2021/04/23 02:22:09;;;;;;;20.30;7.23;;;;;;;2.87;72.85;96690.56;1032867;28;20022;-49
2021/04/23 02:22:41;;;;;;;16.00;6.90;;;;;;;2.72;73.22;96690.13;1036532;28;20064;-47
2021/04/23 02:23:12;;;;;;;16.25;6.45;;;;;;;2.64;74.07;96689.94;1040867;28;20021;-48
2021/04/23 02:23:44;;;;;;;13.93;6.80;;;;;;;2.63;74.90;96698.72;1040797;28;20013;-48
2021/04/23 02:24:15;;;;;;;15.45;6.72;;;;;;;2.61;74.62;96691.03;1040813;28;20097;-47
2021/04/23 02:24:45;;;;;;;15.23;7.37;;;;;;;2.60;74.94;96688.56;1040744;28;20033;-48
2021/04/23 02:25:16;;;;;;;13.43;6.60;;;;;;;2.58;75.13;96686.09;1040721;28;20013;-47
2021/04/23 02:25:49;;;;;;;11.38;6.80;;;;;;;2.57;75.22;96688.84;1040608;28;20012;-47
2021/04/23 02:26:21;;;;;;;19.00;7.60;;;;;;;2.53;75.65;96690.03;1040384;28;20037;-48
2021/04/23 02:26:51;;;;;;;12.85;6.80;;;;;;;2.47;75.57;96688.78;1040728;28;20029;-47
2021/04/23 02:27:22;;;;;;;13.97;6.77;;;;;;;2.38;75.85;96679.97;1040516;28;20492;-48
2021/04/23 02:27:52;;;;;;;14.53;7.00;;;;;;;2.31;76.51;96684.06;1040825;28;20104;-47
2021/04/23 02:28:23;;;;;;;14.63;7.10;;;;;;;2.23;76.84;96679.53;1040766;28;20028;-48
2021/04/23 02:28:53;;;;;;;14.60;6.77;;;;;;;2.19;77.32;96685.91;1040949;28;20451;-48